Aeroporto :
LOGIN :

Iscrizione | Disclaimer

   EN    FR    IT 

 










Sommario :    VFR   VFR Marginale   IFR   IFR Intensivo   IFR Molto Intensivo
Visibilità : 
Base nubi : 
>= 8 km
>= 3000ft
5 / 8 km
1000 / 3000 ft
1500m / 5 km
500 / 1000 ft
800 / 1500m
200 / 500 ft
< 800m
< 200 ft
Simboli :   Temporali  Nebbia  Neve Forte  Precipitazioni Forti  Vento > 20 kt
SIGMETs :   Varie  Temporali  Ghiacco  Turbolenza  Onda orograficha  Ceneri Vulcaniche







- Altitudine del aeroporto : 464 ft
- Codice IATA : EVX
- Carte del aeroporto


LFOE - Evreux

ULTIMO METAR :
  • 190100Z AUTO 27003KT 2600 0650 R22/P2000 BCFG BKN019 02/02 Q1026 TEMPO 0500 BCFG VV///

METARs OBSOLETI :
  • 190030Z AUTO 25004KT 5000 BR NSC 02/02 Q1026 TEMPO 0500 BCFG VV///
  • 190000Z AUTO 25004KT 9000 NSC 03/03 Q1026 TEMPO 0500 BCFG VV///
  • 182330Z AUTO 25004KT CAVOK 03/02 Q1026 TEMPO 0500 BCFG VV///
  • 182300Z AUTO 27005KT CAVOK 02/02 Q1025 BECMG 2000 BR
  • 182230Z AUTO 27004KT CAVOK 03/02 Q1025 BECMG 2000 BR

TAF TAF LFOE
Valido dal 18 a 21 ore il 19 a 21 ore UTC


182000Z 1821/1921 27008KT 9999 SCT030 SCT050
BECMG 1821/1824 VRB03KT 2000 BR
TEMPO 1901/1908 0500 BCFG VV///
PROB30
TEMPO 1905/1907 FZFG
BECMG 1908/1910 9999 NSW BKN010
BECMG 1910/1912 BKN025
Nessun NOTAM noto per questo aeroporto.



MetMap, La meteo Aeronautica in un colpo d'occhio ! - Copyright ORBIFLY Dicembre 2007 - Disclaimer

ORBIFLY MET'MAP TEAM :

Programmazione e sviluppo : Alexandra Zaïnal
Concezione e sviluppo : Baudouin d'Aumeries
Co-Programmazione e sviluppo : Marc-Olivier Méhu
Supporto tecnico e logistico : Manuel Goepfert
Aiuto per la traduzione : Arnaldo La Scala

Contatto : metmap@orbifly.com




FONTI E CREDITI :

   NOAA